Time;durP1;ratioP1;P1;durP2;ratioP2;P2;SDS_P1;SDS_P2;PMS_P1;PMS_P2;Temp;Humidity;BMP_temperature;BMP_pressure;BME280_temperature;BME280_humidity;BME280_pressure;Samples;Min_cycle;Max_cycle;Signal;HPM_P1;HPM_P2
2022/06/10 00:00:03;;;;;;;2.00;1.90;;;16.50;99.90;;;;;;5182443;28;20185;-53
2022/06/10 00:02:33;;;;;;;2.23;2.13;;;16.50;99.90;;;;;;5177418;28;20201;-53
2022/06/10 00:05:04;;;;;;;4.63;2.63;;;16.40;99.90;;;;;;5188611;28;20949;-55
2022/06/10 00:07:35;;;;;;;2.60;2.40;;;16.40;99.90;;;;;;5180318;28;20188;-54
2022/06/10 00:10:07;;;;;;;2.53;2.43;;;16.30;99.90;;;;;;5186118;28;20443;-55
2022/06/10 00:12:38;;;;;;;2.30;2.10;;;16.30;99.90;;;;;;5175938;28;20514;-54
2022/06/10 00:15:09;;;;;;;3.33;3.03;;;16.30;99.90;;;;;;5186903;28;20478;-53
2022/06/10 00:17:40;;;;;;;3.80;2.17;;;16.30;99.90;;;;;;5184230;28;20275;-54
2022/06/10 00:20:15;;;;;;;2.60;2.23;;;16.20;99.90;;;;;;5184385;28;20518;-54
2022/06/10 00:22:46;;;;;;;4.97;2.50;;;16.20;99.90;;;;;;5218016;28;20227;-53
2022/06/10 00:25:17;;;;;;;2.30;2.20;;;16.10;99.90;;;;;;5185750;28;20978;-53
2022/06/10 00:27:49;;;;;;;2.43;2.30;;;16.10;99.90;;;;;;5174610;28;20532;-54
2022/06/10 00:30:23;;;;;;;2.33;2.23;;;16.00;99.90;;;;;;5176243;28;20444;-52
2022/06/10 00:32:55;;;;;;;2.20;2.10;;;16.00;99.90;;;;;;5178569;28;20465;-54
2022/06/10 00:35:27;;;;;;;2.40;2.10;;;15.90;99.90;;;;;;5184075;28;20521;-55
2022/06/10 00:37:58;;;;;;;2.37;1.80;;;15.90;99.90;;;;;;5185126;28;20419;-53
2022/06/10 00:40:32;;;;;;;2.50;2.30;;;15.80;99.90;;;;;;5183841;28;20435;-54
2022/06/10 00:43:04;;;;;;;1.77;1.77;;;15.80;99.90;;;;;;5179681;28;20835;-54
2022/06/10 00:46:18;;;;;;;2.10;2.00;;;15.70;99.90;;;;;;5177309;28;20462;-54
2022/06/10 00:49:07;;;;;;;1.97;1.97;;;15.70;99.90;;;;;;5167720;28;20456;-53
2022/06/10 00:51:42;;;;;;;2.57;2.30;;;15.60;99.90;;;;;;5186290;28;20470;-54
2022/06/10 00:54:23;;;;;;;2.60;2.40;;;15.60;99.90;;;;;;5214999;28;20438;-54
2022/06/10 00:57:04;;;;;;;13.20;3.20;;;15.50;99.90;;;;;;5179972;28;20871;-54
2022/06/10 00:59:42;;;;;;;2.17;2.07;;;15.50;99.90;;;;;;5184527;28;20463;-54
2022/06/10 01:02:20;;;;;;;2.70;2.50;;;15.50;99.90;;;;;;5183850;28;20471;-56
2022/06/10 01:04:53;;;;;;;3.60;2.67;;;15.40;99.90;;;;;;5180023;28;20423;-54
2022/06/10 01:07:32;;;;;;;3.13;2.60;;;15.40;99.90;;;;;;5173626;28;20446;-54
2022/06/10 01:10:06;;;;;;;8.03;2.60;;;15.40;99.90;;;;;;5183986;28;20442;-53
2022/06/10 01:12:46;;;;;;;2.73;2.53;;;15.40;99.90;;;;;;5184192;28;20462;-53
2022/06/10 01:15:36;;;;;;;2.40;2.30;;;15.30;99.90;;;;;;5181621;28;20966;-54
2022/06/10 01:18:24;;;;;;;3.27;3.07;;;15.30;99.90;;;;;;5184734;28;20782;-53
2022/06/10 01:21:16;;;;;;;2.40;2.20;;;15.30;99.90;;;;;;5217722;28;20854;-54
2022/06/10 01:24:11;;;;;;;2.60;2.40;;;15.20;99.90;;;;;;5189853;28;20525;-53
2022/06/10 01:27:48;;;;;;;2.57;2.40;;;15.20;99.90;;;;;;5179395;28;20443;-55
2022/06/10 01:30:40;;;;;;;5.23;2.43;;;15.20;99.90;;;;;;5179295;28;20810;-54
2022/06/10 01:33:23;;;;;;;2.70;2.50;;;15.10;99.90;;;;;;5177439;28;20490;-54
2022/06/10 01:36:00;;;;;;;2.87;2.67;;;15.10;99.90;;;;;;5194575;28;20494;-54
2022/06/10 01:39:06;;;;;;;4.57;3.50;;;15.10;99.90;;;;;;5193354;28;20825;-53
2022/06/10 01:42:02;;;;;;;7.30;3.10;;;15.00;99.90;;;;;;5182008;28;20455;-53
2022/06/10 01:44:51;;;;;;;2.83;2.63;;;15.00;99.90;;;;;;5191338;28;20439;-54
2022/06/10 01:47:33;;;;;;;5.67;3.40;;;15.00;99.90;;;;;;5188818;28;20419;-54
2022/06/10 01:50:12;;;;;;;3.30;3.10;;;14.90;99.90;;;;;;5225727;28;20561;-53
2022/06/10 01:52:54;;;;;;;2.80;2.70;;;14.90;99.90;;;;;;5191141;28;20549;-53
2022/06/10 01:55:35;;;;;;;3.23;3.03;;;14.90;99.90;;;;;;5192092;28;20504;-52
2022/06/10 01:58:25;;;;;;;3.03;2.83;;;14.80;99.90;;;;;;5191615;28;20435;-53
2022/06/10 02:01:05;;;;;;;4.93;3.17;;;14.80;99.90;;;;;;5192273;28;20430;-53
2022/06/10 02:04:01;;;;;;;3.73;2.80;;;14.70;99.90;;;;;;5211014;28;20536;-53
2022/06/10 02:06:57;;;;;;;8.13;2.77;;;14.70;99.90;;;;;;5189248;28;20435;-53
2022/06/10 02:09:38;;;;;;;2.80;2.60;;;14.70;99.90;;;;;;5179905;28;20442;-54
2022/06/10 02:12:32;;;;;;;2.07;2.00;;;14.70;99.90;;;;;;5185484;28;20985;-53
2022/06/10 02:15:13;;;;;;;2.60;2.50;;;14.60;99.90;;;;;;5205618;28;20499;-54
2022/06/10 02:17:49;;;;;;;2.70;2.60;;;14.60;99.90;;;;;;5186716;28;20432;-60
2022/06/10 02:20:26;;;;;;;2.77;2.60;;;14.60;99.90;;;;;;5190365;28;20427;-53
2022/06/10 02:22:58;;;;;;;2.60;2.50;;;14.60;99.90;;;;;;5186709;28;20454;-53
2022/06/10 02:25:39;;;;;;;4.53;3.10;;;14.50;99.90;;;;;;5178065;28;20440;-54
2022/06/10 02:28:13;;;;;;;3.57;3.00;;;14.50;99.90;;;;;;5180943;28;20503;-52
2022/06/10 02:30:52;;;;;;;3.33;2.73;;;14.50;99.90;;;;;;5179020;28;20454;-56
2022/06/10 02:33:23;;;;;;;3.10;2.90;;;14.40;99.90;;;;;;5181642;28;20459;-52
2022/06/10 02:36:08;;;;;;;4.43;3.03;;;14.40;99.90;;;;;;5218914;28;20482;-54
2022/06/10 02:38:59;;;;;;;5.03;3.00;;;14.40;99.90;;;;;;5188435;28;20211;-53
2022/06/10 02:41:40;;;;;;;3.07;2.87;;;14.40;99.90;;;;;;5219302;28;20574;-52
2022/06/10 02:44:33;;;;;;;4.57;3.57;;;14.40;99.90;;;;;;5210276;28;20931;-52
2022/06/10 02:47:12;;;;;;;7.37;3.30;;;14.30;99.90;;;;;;5185257;28;21009;-53
2022/06/10 02:49:43;;;;;;;4.57;4.03;;;14.30;99.90;;;;;;5181670;28;20806;-53
2022/06/10 02:52:16;;;;;;;4.10;3.63;;;14.30;99.90;;;;;;5186852;28;20471;-53
2022/06/10 02:54:47;;;;;;;7.77;4.40;;;14.20;99.90;;;;;;5186942;28;20578;-53
2022/06/10 03:01:11;;;;;;;9.60;4.77;;;14.30;99.90;;;;;;5187549;28;20518;-53
2022/06/10 03:03:38;;;;;;;6.90;5.10;;;14.20;99.90;;;;;;5183283;28;20507;-54
2022/06/10 03:06:19;;;;;;;4.70;4.23;;;14.20;99.90;;;;;;5184403;28;20534;-54
2022/06/10 03:09:11;;;;;;;9.40;5.30;;;14.20;99.90;;;;;;5185890;28;20439;-54
2022/06/10 03:12:06;;;;;;;6.70;4.53;;;14.20;99.90;;;;;;5183420;28;20447;-53
2022/06/10 03:14:41;;;;;;;9.50;4.97;;;14.20;99.90;;;;;;5179943;28;20426;-54
2022/06/10 03:17:44;;;;;;;4.63;4.10;;;14.20;99.90;;;;;;5173848;28;20465;-53
2022/06/10 03:20:29;;;;;;;6.90;4.60;;;14.20;99.90;;;;;;5193872;28;20431;-54
2022/06/10 03:23:32;;;;;;;4.67;4.27;;;14.10;99.90;;;;;;5187078;28;20967;-54
2022/06/10 03:26:19;;;;;;;6.93;4.27;;;14.10;99.90;;;;;;5185528;28;20569;-54
2022/06/10 03:28:59;;;;;;;6.40;4.00;;;14.10;99.90;;;;;;5188158;28;20456;-54
2022/06/10 03:31:33;;;;;;;4.07;3.70;;;14.10;99.90;;;;;;5181868;28;20462;-54
2022/06/10 03:34:26;;;;;;;5.67;4.67;;;14.20;99.90;;;;;;5186232;28;20435;-54
2022/06/10 03:36:58;;;;;;;3.80;3.53;;;14.20;99.90;;;;;;5187845;28;20467;-51
2022/06/10 03:39:30;;;;;;;4.80;4.00;;;14.20;99.90;;;;;;5181794;28;20476;-54
2022/06/10 03:42:12;;;;;;;4.67;3.50;;;14.20;99.90;;;;;;5184770;28;20459;-53
2022/06/10 03:44:47;;;;;;;5.07;3.73;;;14.20;99.90;;;;;;5185757;28;20570;-53
2022/06/10 03:47:29;;;;;;;3.60;3.40;;;14.30;99.90;;;;;;5178672;28;20755;-54
2022/06/10 03:50:06;;;;;;;11.13;3.97;;;14.30;99.90;;;;;;5186662;28;20442;-54
2022/06/10 03:52:39;;;;;;;6.00;4.20;;;14.30;99.90;;;;;;5188052;28;20474;-54
2022/06/10 03:55:13;;;;;;;11.13;4.60;;;14.30;99.90;;;;;;5188106;28;20454;-54
2022/06/10 03:57:45;;;;;;;4.97;4.20;;;14.30;99.90;;;;;;5178580;28;21031;-53
2022/06/10 04:00:19;;;;;;;9.30;4.53;;;14.30;99.90;;;;;;5189204;28;20497;-53
2022/06/10 04:02:50;;;;;;;4.60;4.10;;;14.30;99.90;;;;;;5188262;28;20446;-52
2022/06/10 04:05:21;;;;;;;5.20;4.00;;;14.40;99.90;;;;;;5182770;28;20425;-52
2022/06/10 04:07:52;;;;;;;8.33;3.70;;;14.40;99.90;;;;;;5189594;28;20439;-53
2022/06/10 04:10:25;;;;;;;5.83;3.57;;;14.40;99.90;;;;;;5186198;28;20188;-55
2022/06/10 04:12:57;;;;;;;3.73;3.43;;;14.50;99.90;;;;;;5183014;28;20204;-53
2022/06/10 04:15:27;;;;;;;4.13;3.57;;;14.60;99.90;;;;;;5184358;28;20506;-52
2022/06/10 04:17:58;;;;;;;4.20;3.80;;;14.70;99.90;;;;;;5212773;28;20529;-53
2022/06/10 04:20:34;;;;;;;4.70;3.90;;;14.80;99.90;;;;;;5187474;28;20192;-54
2022/06/10 04:23:05;;;;;;;7.70;4.17;;;14.90;99.90;;;;;;5185010;28;20212;-54
2022/06/10 04:25:37;;;;;;;12.40;4.00;;;15.10;99.90;;;;;;5184150;28;20451;-53
2022/06/10 04:28:08;;;;;;;16.73;4.67;;;15.20;99.90;;;;;;5179346;28;20450;-53
2022/06/10 04:30:45;;;;;;;3.70;3.40;;;15.40;99.90;;;;;;5179104;28;20440;-53
2022/06/10 04:33:17;;;;;;;4.53;4.00;;;15.60;99.90;;;;;;5210013;28;20204;-54
2022/06/10 04:35:49;;;;;;;8.33;4.90;;;15.90;99.90;;;;;;5181412;28;20459;-54
2022/06/10 04:38:22;;;;;;;6.70;4.00;;;16.00;99.90;;;;;;5178014;28;20755;-53
2022/06/10 04:40:52;;;;;;;6.43;3.93;;;16.10;99.90;;;;;;5185263;28;20838;-52
2022/06/10 04:43:23;;;;;;;4.93;4.37;;;16.50;99.90;;;;;;5185161;28;20463;-52
2022/06/10 04:45:56;;;;;;;7.20;4.60;;;17.10;99.90;;;;;;5183122;28;20330;-54
2022/06/10 04:48:28;;;;;;;4.50;3.20;;;17.50;99.90;;;;;;5180328;28;20195;-54
2022/06/10 04:50:59;;;;;;;5.83;3.80;;;18.00;99.90;;;;;;5184853;28;20515;-54
2022/06/10 04:53:29;;;;;;;4.47;4.07;;;18.60;99.90;;;;;;5186821;28;20477;-54
2022/06/10 04:56:01;;;;;;;5.23;3.13;;;18.80;99.90;;;;;;5176182;28;20459;-55
2022/06/10 04:58:31;;;;;;;4.77;3.67;;;19.20;99.90;;;;;;5175062;28;20195;-55
2022/06/10 05:01:02;;;;;;;3.87;3.10;;;19.60;99.90;;;;;;5185159;28;20491;-56
2022/06/10 05:03:33;;;;;;;5.47;3.00;;;19.70;99.90;;;;;;5183445;28;20193;-55
2022/06/10 05:06:04;;;;;;;6.83;4.07;;;20.50;99.90;;;;;;5193447;28;20185;-55
2022/06/10 05:08:35;;;;;;;11.63;3.87;;;21.90;95.00;;;;;;5184816;28;20721;-57
2022/06/10 05:11:07;;;;;;;7.67;4.07;;;22.60;83.80;;;;;;5179468;28;20538;-54
2022/06/10 05:13:37;;;;;;;9.40;4.27;;;22.90;78.30;;;;;;5176594;28;20222;-54
2022/06/10 05:16:08;;;;;;;11.37;4.80;;;23.70;71.50;;;;;;5180887;28;20550;-54
2022/06/10 05:18:39;;;;;;;4.13;3.60;;;24.10;64.80;;;;;;5180243;28;20630;-54
2022/06/10 05:21:10;;;;;;;5.23;3.23;;;24.10;61.40;;;;;;5182926;28;20243;-55
2022/06/10 05:23:44;;;;;;;3.37;2.93;;;24.00;61.80;;;;;;5179940;28;20904;-54
2022/06/10 05:26:16;;;;;;;11.20;3.60;;;25.00;58.40;;;;;;5178913;28;20219;-54
2022/06/10 05:28:49;;;;;;;3.57;2.83;;;26.30;55.00;;;;;;5184836;28;20449;-54
2022/06/10 05:31:20;;;;;;;9.47;2.73;;;27.00;50.70;;;;;;5179921;28;20492;-55
2022/06/10 05:36:40;;;;;;;5.10;2.40;;;28.80;46.80;;;;;;5169039;28;20295;-55
2022/06/10 05:39:10;;;;;;;6.13;2.60;;;28.90;44.20;;;;;;5180033;28;21099;-54
2022/06/10 05:44:34;;;;;;;6.50;3.60;;;30.60;41.00;;;;;;5180671;28;20572;-55
2022/06/10 05:47:08;;;;;;;7.00;2.83;;;30.80;39.00;;;;;;5180384;28;20453;-54
2022/06/10 05:49:42;;;;;;;3.60;1.80;;;31.00;38.50;;;;;;5184946;28;20431;-54
2022/06/10 05:52:16;;;;;;;5.40;2.40;;;30.30;37.70;;;;;;5193349;23;20497;-50
2022/06/10 05:54:48;;;;;;;3.17;2.33;;;30.20;38.80;;;;;;5219131;28;20442;-51
2022/06/10 05:57:19;;;;;;;5.43;3.10;;;30.30;38.70;;;;;;5221666;28;20450;-51
2022/06/10 05:59:52;;;;;;;5.43;2.60;;;31.70;37.50;;;;;;5216086;28;20415;-51
2022/06/10 06:02:24;;;;;;;2.67;2.40;;;32.70;35.60;;;;;;5218725;28;20464;-51
2022/06/10 06:04:54;;;;;;;5.23;2.37;;;33.60;34.90;;;;;;5203513;28;20216;-51
2022/06/10 06:07:27;;;;;;;7.40;3.40;;;33.40;33.20;;;;;;5205774;28;20194;-50
2022/06/10 06:09:58;;;;;;;5.07;2.73;;;34.00;33.00;;;;;;5204615;28;20547;-50
2022/06/10 06:12:29;;;;;;;7.20;2.77;;;33.60;32.20;;;;;;5197347;28;20283;-53
2022/06/10 06:14:59;;;;;;;2.20;1.50;;;32.70;32.40;;;;;;5204766;28;20233;-54
2022/06/10 06:17:30;;;;;;;4.73;2.00;;;31.20;34.40;;;;;;5216481;28;20188;-51
2022/06/10 06:20:00;;;;;;;11.53;2.53;;;32.00;34.60;;;;;;5205434;28;20195;-52
2022/06/10 06:22:31;;;;;;;3.00;1.40;;;32.50;33.40;;;;;;5206916;28;20697;-51
2022/06/10 06:25:02;;;;;;;4.80;1.60;;;32.40;33.20;;;;;;5199816;28;20287;-52
2022/06/10 06:27:32;;;;;;;1.00;1.00;;;33.30;32.70;;;;;;5197866;28;20176;-51
2022/06/10 06:30:04;;;;;;;1.73;1.63;;;34.30;31.30;;;;;;5207802;28;20722;-53
2022/06/10 06:32:35;;;;;;;1.40;1.30;;;32.30;31.50;;;;;;5220837;28;20219;-51
2022/06/10 06:35:06;;;;;;;3.37;1.23;;;31.90;33.10;;;;;;5200562;28;20206;-50
2022/06/10 06:37:37;;;;;;;1.77;1.37;;;31.70;33.30;;;;;;5208513;28;20265;-49
2022/06/10 06:40:10;;;;;;;3.20;1.33;;;32.20;32.40;;;;;;5204073;28;20175;-51
2022/06/10 06:42:41;;;;;;;1.63;1.40;;;31.80;33.10;;;;;;5203456;28;20203;-51
2022/06/10 06:45:13;;;;;;;3.87;1.80;;;32.20;32.10;;;;;;5206731;28;20863;-51
2022/06/10 06:47:44;;;;;;;2.80;1.23;;;31.40;32.60;;;;;;5207716;28;20190;-51
2022/06/10 06:50:18;;;;;;;2.03;1.83;;;32.60;33.40;;;;;;5206627;28;20329;-51
2022/06/10 06:52:49;;;;;;;2.53;1.43;;;32.60;32.70;;;;;;5206801;28;20807;-51
2022/06/10 06:55:20;;;;;;;3.90;1.30;;;32.70;33.00;;;;;;5204572;28;20203;-52
2022/06/10 06:57:51;;;;;;;2.67;1.20;;;32.90;32.30;;;;;;5202938;28;20274;-51
2022/06/10 07:00:22;;;;;;;2.17;2.00;;;32.70;32.10;;;;;;5190534;28;20271;-53
2022/06/10 07:02:53;;;;;;;3.23;1.20;;;34.00;31.40;;;;;;5203239;28;20557;-52
2022/06/10 07:05:24;;;;;;;5.77;2.13;;;34.90;30.00;;;;;;5209838;28;20278;-51
2022/06/10 07:07:54;;;;;;;2.17;1.50;;;35.40;29.70;;;;;;5208709;28;20191;-52
2022/06/10 07:10:25;;;;;;;3.67;1.20;;;35.30;29.00;;;;;;5197788;28;20184;-51
2022/06/10 07:12:56;;;;;;;1.60;1.20;;;34.20;29.20;;;;;;5201458;28;20218;-51
2022/06/10 07:15:27;;;;;;;4.10;2.13;;;34.40;29.40;;;;;;5192646;28;20274;-52
2022/06/10 07:18:00;;;;;;;1.80;1.20;;;33.90;29.30;;;;;;5203815;28;20175;-50
2022/06/10 07:20:33;;;;;;;8.33;1.57;;;34.10;30.70;;;;;;5201208;28;20221;-50
2022/06/10 07:23:04;;;;;;;1.37;1.23;;;34.20;29.40;;;;;;5198770;28;20675;-51
2022/06/10 07:25:35;;;;;;;5.10;1.47;;;34.00;28.90;;;;;;5203990;28;20179;-51
2022/06/10 07:28:07;;;;;;;3.17;1.53;;;33.40;29.00;;;;;;5194475;28;20666;-50
2022/06/10 07:30:39;;;;;;;2.20;1.27;;;33.80;29.60;;;;;;5203587;28;20177;-50
2022/06/10 07:33:10;;;;;;;8.27;1.85;;;34.90;28.50;;;;;;5206945;28;20303;-57
2022/06/10 07:35:41;;;;;;;4.00;1.65;;;35.50;27.60;;;;;;5217794;28;20690;-51
2022/06/10 07:38:12;;;;;;;3.97;1.20;;;35.60;27.80;;;;;;5202639;28;20187;-51
2022/06/10 07:43:35;;;;;;;3.45;1.90;;;35.40;27.20;;;;;;5195035;28;20230;-52
2022/06/10 07:46:08;;;;;;;1.70;0.90;;;34.30;28.50;;;;;;5202860;28;20187;-50
2022/06/10 07:48:39;;;;;;;3.07;0.93;;;33.90;28.30;;;;;;5201739;28;20221;-51
2022/06/10 07:51:10;;;;;;;2.05;1.35;;;33.90;28.20;;;;;;5199271;28;20210;-51
2022/06/10 07:53:41;;;;;;;10.68;2.53;;;34.80;28.40;;;;;;5205285;28;20221;-50
2022/06/10 07:56:13;;;;;;;4.47;1.77;;;34.90;27.00;;;;;;5202738;28;20213;-50
2022/06/10 07:58:45;;;;;;;1.33;1.23;;;35.20;26.40;;;;;;5196708;28;20550;-51
2022/06/10 08:01:16;;;;;;;6.60;1.40;;;34.90;26.50;;;;;;5199856;28;20176;-51
2022/06/10 08:03:48;;;;;;;5.70;0.90;;;34.10;27.20;;;;;;5199093;28;20222;-50
2022/06/10 08:06:21;;;;;;;3.30;1.27;;;34.60;27.20;;;;;;5195092;28;20263;-54
2022/06/10 08:08:52;;;;;;;2.77;0.80;;;34.80;26.70;;;;;;5206683;28;20194;-51
2022/06/10 08:11:23;;;;;;;2.57;1.00;;;34.30;27.10;;;;;;5201347;28;20215;-52
2022/06/10 08:13:53;;;;;;;3.30;1.30;;;34.20;27.20;;;;;;5194979;28;20214;-52
2022/06/10 08:16:25;;;;;;;10.57;2.13;;;34.00;27.40;;;;;;5205886;28;20283;-53
2022/06/10 08:18:55;;;;;;;7.57;1.53;;;33.70;28.00;;;;;;5201770;28;20471;-51
2022/06/10 08:22:32;;;;;;;7.00;1.90;;;33.30;27.90;;;;;;5198735;28;20172;-52
2022/06/10 08:24:20;;;;;;;5.10;1.87;;;33.40;28.10;;;;;;5207696;28;20187;-54
2022/06/10 08:26:51;;;;;;;7.90;1.87;;;33.80;27.90;;;;;;5204240;28;20619;-53
2022/06/10 08:29:22;;;;;;;2.77;1.87;;;33.00;27.20;;;;;;5205709;28;20191;-50
2022/06/10 08:31:52;;;;;;;1.03;0.97;;;32.30;28.30;;;;;;5194289;28;20190;-51
2022/06/10 08:34:24;;;;;;;7.33;1.80;;;31.80;28.90;;;;;;5199839;28;20190;-52
2022/06/10 08:36:54;;;;;;;20.20;1.40;;;31.90;29.10;;;;;;5201801;28;20271;-51
2022/06/10 08:39:26;;;;;;;25.10;4.07;;;31.90;29.10;;;;;;5207490;28;20186;-52
2022/06/10 08:42:06;;;;;;;4.10;1.87;;;31.90;29.80;;;;;;5194262;28;20176;-50
2022/06/10 08:44:53;;;;;;;3.90;1.50;;;31.10;30.30;;;;;;5200763;28;20487;-51
2022/06/10 08:47:57;;;;;;;4.43;1.60;;;30.20;31.00;;;;;;5200746;28;20445;-50
2022/06/10 08:51:04;;;;;;;1.50;1.23;;;29.40;32.90;;;;;;5202818;28;20981;-54
2022/06/10 08:54:05;;;;;;;2.70;1.57;;;28.50;35.00;;;;;;5175998;28;20522;-51
2022/06/10 08:56:49;;;;;;;2.10;1.57;;;26.80;37.10;;;;;;5188046;28;20477;-50
2022/06/10 08:59:39;;;;;;;5.13;2.10;;;24.90;40.00;;;;;;5200908;28;20441;-50
2022/06/10 09:02:33;;;;;;;17.10;3.33;;;23.70;42.60;;;;;;5206803;28;20466;-50
2022/06/10 09:05:32;;;;;;;9.30;2.90;;;23.50;43.60;;;;;;5196078;28;20792;-51
2022/06/10 09:08:16;;;;;;;6.97;2.00;;;23.80;43.50;;;;;;5206055;28;20520;-51
2022/06/10 09:10:59;;;;;;;3.70;2.10;;;23.80;43.00;;;;;;5201748;28;20449;-50
2022/06/10 09:13:57;;;;;;;1.70;1.47;;;23.70;42.90;;;;;;5203673;28;21068;-50
2022/06/10 09:16:35;;;;;;;2.50;1.60;;;23.70;43.10;;;;;;5200805;28;20478;-50
2022/06/10 09:19:19;;;;;;;4.07;1.60;;;24.00;41.90;;;;;;5200243;28;20434;-52
2022/06/10 09:22:02;;;;;;;2.50;1.67;;;24.20;40.80;;;;;;5199357;28;20489;-50
2022/06/10 09:25:04;;;;;;;4.57;1.83;;;23.90;41.10;;;;;;5203040;28;20480;-50
2022/06/10 09:27:39;;;;;;;8.77;2.10;;;23.60;42.60;;;;;;5189251;28;20431;-52
2022/06/10 09:30:14;;;;;;;20.87;2.80;;;23.70;42.50;;;;;;5192023;28;20860;-50
2022/06/10 09:32:47;;;;;;;6.37;2.40;;;23.60;40.40;;;;;;5202147;28;20450;-50
2022/06/10 09:35:28;;;;;;;37.60;14.10;;;23.30;40.60;;;;;;5196104;28;20469;-50
2022/06/10 09:38:36;;;;;;;18.60;3.80;;;22.90;40.10;;;;;;5198884;28;20430;-50
2022/06/10 09:41:28;;;;;;;3.70;2.20;;;22.80;41.80;;;;;;5205241;28;20521;-50
2022/06/10 09:44:11;;;;;;;7.37;1.87;;;22.70;42.30;;;;;;5197724;28;20613;-51
2022/06/10 09:47:00;;;;;;;2.00;1.33;;;22.50;42.40;;;;;;5203984;28;20434;-50
2022/06/10 09:49:55;;;;;;;7.33;1.07;;;22.40;42.50;;;;;;5205554;28;20772;-50
2022/06/10 09:52:39;;;;;;;0.90;0.90;;;22.40;42.50;;;;;;5204279;28;20482;-50
2022/06/10 09:55:27;;;;;;;2.77;1.60;;;22.40;42.50;;;;;;5205064;28;20877;-50
2022/06/10 09:58:36;;;;;;;0.93;0.93;;;22.40;41.40;;;;;;5199758;28;21001;-50
2022/06/10 10:01:46;;;;;;;4.77;1.57;;;22.40;42.10;;;;;;5203012;28;20533;-50
2022/06/10 10:04:41;;;;;;;15.43;2.00;;;22.10;44.10;;;;;;5206005;28;20923;-49
2022/06/10 10:07:18;;;;;;;2.70;1.43;;;22.30;44.80;;;;;;5203896;28;20575;-50
2022/06/10 10:10:13;;;;;;;6.97;3.40;;;22.60;44.70;;;;;;5204758;28;20430;-50
2022/06/10 10:13:01;;;;;;;2.30;1.40;;;22.70;43.50;;;;;;5200325;28;20953;-49
2022/06/10 10:15:50;;;;;;;2.00;1.30;;;22.80;43.30;;;;;;5203168;28;20466;-51
2022/06/10 10:18:57;;;;;;;3.63;2.00;;;22.70;44.00;;;;;;5206876;28;20422;-51
2022/06/10 10:21:53;;;;;;;2.17;1.63;;;22.70;44.20;;;;;;5204152;28;20429;-49
2022/06/10 10:24:24;;;;;;;4.00;1.67;;;22.80;44.40;;;;;;5202176;28;20411;-50
2022/06/10 10:26:56;;;;;;;1.07;1.07;;;22.70;44.00;;;;;;5196783;28;20445;-50
2022/06/10 10:29:31;;;;;;;8.43;1.83;;;22.80;44.50;;;;;;5194066;28;20443;-50
2022/06/10 10:32:12;;;;;;;13.23;3.10;;;22.70;44.30;;;;;;5207860;28;20441;-50
2022/06/10 10:34:47;;;;;;;7.83;1.90;;;22.70;44.50;;;;;;5204566;28;20529;-49
2022/06/10 10:37:31;;;;;;;30.33;12.83;;;22.50;44.30;;;;;;5203862;28;21013;-50
2022/06/10 10:40:05;;;;;;;5.57;3.23;;;22.30;43.70;;;;;;5193047;28;20418;-51
2022/06/10 10:42:39;;;;;;;5.60;3.00;;;22.30;43.40;;;;;;5201534;28;20475;-50
2022/06/10 10:45:30;;;;;;;1.50;1.40;;;22.60;43.40;;;;;;5205522;28;20962;-50
2022/06/10 10:48:27;;;;;;;9.30;3.57;;;22.70;42.30;;;;;;5194354;28;20533;-50
2022/06/10 10:51:17;;;;;;;6.60;1.60;;;22.60;42.70;;;;;;5204817;28;20441;-50
2022/06/10 10:53:56;;;;;;;13.13;3.87;;;22.60;42.90;;;;;;5203609;28;20496;-49
2022/06/10 10:56:32;;;;;;;37.13;12.37;;;22.70;43.40;;;;;;5202429;28;20947;-50
2022/06/10 10:59:04;;;;;;;6.57;2.53;;;22.90;42.20;;;;;;5194712;28;20430;-51
2022/06/10 11:01:45;;;;;;;8.63;2.27;;;22.80;40.90;;;;;;5201688;28;20439;-51
2022/06/10 11:04:33;;;;;;;12.33;2.73;;;22.70;41.80;;;;;;5206791;28;20455;-50
2022/06/10 11:07:18;;;;;;;2.60;2.40;;;22.70;42.20;;;;;;5206032;28;20414;-50
2022/06/10 11:10:07;;;;;;;4.17;1.60;;;22.80;42.20;;;;;;5205888;28;20422;-51
2022/06/10 11:12:37;;;;;;;19.67;9.00;;;22.90;41.50;;;;;;5199540;28;20434;-50
2022/06/10 11:15:28;;;;;;;3.20;2.60;;;23.00;40.10;;;;;;5203253;28;20918;-51
2022/06/10 11:18:01;;;;;;;7.40;3.90;;;23.10;39.50;;;;;;5207751;28;20190;-52
2022/06/10 11:20:34;;;;;;;2.63;2.43;;;23.00;39.80;;;;;;5200105;28;20941;-51
2022/06/10 11:23:21;;;;;;;1.83;1.73;;;22.70;40.60;;;;;;5200866;28;20450;-50
2022/06/10 11:26:05;;;;;;;4.40;2.07;;;22.50;41.20;;;;;;5187970;28;20446;-50
2022/06/10 11:28:39;;;;;;;3.40;1.83;;;22.70;41.10;;;;;;5203662;28;20641;-50
2022/06/10 11:31:30;;;;;;;4.47;1.83;;;22.50;41.50;;;;;;5187248;28;20449;-50
2022/06/10 11:34:03;;;;;;;4.93;2.40;;;22.60;42.00;;;;;;5205753;28;20449;-50
2022/06/10 11:36:43;;;;;;;3.93;1.80;;;22.70;41.60;;;;;;5204151;28;20473;-50
2022/06/10 11:39:27;;;;;;;5.80;1.50;;;22.70;41.90;;;;;;5199394;28;20434;-50
2022/06/10 11:42:08;;;;;;;6.70;1.70;;;22.60;41.30;;;;;;5196612;28;20513;-51
2022/06/10 11:44:46;;;;;;;1.77;1.30;;;22.50;41.50;;;;;;5194418;28;20427;-51
2022/06/10 11:47:37;;;;;;;4.60;1.87;;;22.60;40.50;;;;;;5201821;28;20492;-51
2022/06/10 11:50:23;;;;;;;5.20;1.10;;;22.70;40.60;;;;;;5202477;28;20445;-52
2022/06/10 11:52:57;;;;;;;5.20;1.33;;;22.70;40.70;;;;;;5214469;23;20864;-50
2022/06/10 11:55:37;;;;;;;3.57;2.80;;;22.90;41.00;;;;;;5202610;28;20467;-49
2022/06/10 12:01:24;;;;;;;1.80;1.43;;;23.00;40.50;;;;;;5202217;28;20485;-50
2022/06/10 12:04:15;;;;;;;3.80;2.40;;;23.10;40.60;;;;;;5195872;28;20443;-55
2022/06/10 12:06:54;;;;;;;6.33;3.73;;;23.20;39.80;;;;;;5187477;28;20423;-50
2022/06/10 12:09:27;;;;;;;4.73;1.57;;;23.40;36.90;;;;;;5185437;28;20461;-50
2022/06/10 12:11:58;;;;;;;12.63;5.90;;;23.50;36.80;;;;;;5185191;28;20449;-49
2022/06/10 12:14:38;;;;;;;2.30;2.20;;;23.40;37.40;;;;;;5182278;28;20557;-48
2022/06/10 12:17:16;;;;;;;2.83;1.30;;;23.20;38.10;;;;;;5179847;28;20477;-50
2022/06/10 12:20:04;;;;;;;3.20;1.73;;;23.20;37.80;;;;;;5182215;28;20509;-48
2022/06/10 12:22:35;;;;;;;12.40;1.30;;;23.20;39.00;;;;;;5183843;28;20459;-49
2022/06/10 12:25:22;;;;;;;7.83;1.37;;;23.20;38.30;;;;;;5176489;28;20424;-49
2022/06/10 12:28:02;;;;;;;2.90;2.33;;;23.20;38.50;;;;;;5175242;28;20185;-51
2022/06/10 12:30:45;;;;;;;9.60;1.70;;;23.30;38.20;;;;;;5188181;28;20774;-50
2022/06/10 12:33:40;;;;;;;3.03;1.23;;;23.40;38.10;;;;;;5182221;28;20463;-49
2022/06/10 12:36:20;;;;;;;4.87;1.50;;;23.50;38.50;;;;;;5182926;28;20560;-48
2022/06/10 12:38:53;;;;;;;4.23;1.20;;;23.50;39.10;;;;;;5183504;28;20798;-49
2022/06/10 12:41:40;;;;;;;5.20;1.20;;;23.60;39.10;;;;;;5165876;28;20436;-49
2022/06/10 12:44:22;;;;;;;13.87;6.23;;;23.90;38.60;;;;;;5176889;28;20446;-49
2022/06/10 12:47:01;;;;;;;7.23;2.80;;;23.90;38.10;;;;;;5187175;28;20439;-48
2022/06/10 12:49:42;;;;;;;6.23;1.47;;;24.00;38.00;;;;;;5186598;28;20952;-50
2022/06/10 12:52:58;;;;;;;4.07;2.13;;;24.10;37.80;;;;;;5186013;28;20502;-49
2022/06/10 12:55:53;;;;;;;2.83;1.40;;;24.10;36.80;;;;;;5182861;28;20541;-49
2022/06/10 12:58:42;;;;;;;3.13;1.17;;;23.80;35.80;;;;;;5181419;28;20431;-51
2022/06/10 13:01:19;;;;;;;10.90;3.93;;;23.70;36.50;;;;;;5177073;28;20450;-53
2022/06/10 13:03:53;;;;;;;6.33;1.37;;;23.70;36.60;;;;;;5186332;28;20443;-50
2022/06/10 13:06:30;;;;;;;4.83;1.20;;;23.70;36.80;;;;;;5185311;28;20526;-49
2022/06/10 13:09:10;;;;;;;0.97;0.93;;;23.50;36.30;;;;;;5185836;28;21021;-49
2022/06/10 13:11:49;;;;;;;3.90;1.20;;;23.50;36.20;;;;;;5180635;28;20439;-49
2022/06/10 13:14:25;;;;;;;5.10;1.57;;;23.50;36.20;;;;;;5186152;28;20971;-49
2022/06/10 13:16:59;;;;;;;2.40;1.17;;;23.70;35.80;;;;;;5173213;28;20477;-52
2022/06/10 13:19:41;;;;;;;3.80;1.00;;;23.70;35.90;;;;;;5183386;28;20443;-50
2022/06/10 13:22:20;;;;;;;0.90;0.90;;;23.90;36.10;;;;;;5180017;28;20787;-52
2022/06/10 13:24:54;;;;;;;4.53;2.90;;;24.10;35.50;;;;;;5180770;28;20418;-51
2022/06/10 13:27:30;;;;;;;5.80;5.17;;;24.10;33.80;;;;;;5175574;28;20441;-51
2022/06/10 13:30:27;;;;;;;4.47;2.00;;;24.00;34.30;;;;;;5185554;28;20434;-49
2022/06/10 13:33:01;;;;;;;7.80;1.33;;;23.90;34.10;;;;;;5180799;28;20942;-50
2022/06/10 13:35:36;;;;;;;3.47;0.83;;;23.90;34.10;;;;;;5188161;28;20463;-48
2022/06/10 13:38:12;;;;;;;1.60;1.50;;;24.20;34.00;;;;;;5173170;28;20431;-49
2022/06/10 13:40:50;;;;;;;1.50;1.40;;;24.10;33.50;;;;;;5178496;28;20442;-51
2022/06/10 13:43:29;;;;;;;3.70;0.70;;;24.10;34.50;;;;;;5186447;28;20446;-49
2022/06/10 13:46:00;;;;;;;12.13;5.87;;;24.10;34.10;;;;;;5181081;28;20459;-51
2022/06/10 13:48:30;;;;;;;1.80;1.37;;;24.10;33.90;;;;;;5174550;28;20487;-51
2022/06/10 13:51:20;;;;;;;8.63;1.77;;;24.10;33.10;;;;;;5177239;28;20600;-50
2022/06/10 13:54:04;;;;;;;8.57;4.50;;;24.00;33.00;;;;;;5179376;28;20220;-48
2022/06/10 13:56:42;;;;;;;19.20;9.33;;;23.90;33.90;;;;;;5185007;28;20474;-49
2022/06/10 13:59:29;;;;;;;7.03;2.00;;;24.00;34.20;;;;;;5178796;28;20947;-50